Leonora, Australia
Current Conditions -  °F | °C
As of 10:00 AM on Tuesday 23 Dec 2014 (Local Time) from YPKG Reporting Station
Few Clouds Few Clouds  
Wind Chill: 73°   Ceiling: Unl
Heat Index: 73°   Visibility: 6mi
Dew Point: 48°   Wind: 12mph
Humidity: 41%   Direction: 90°E
Pressure: 30.12"   Gusts: NA
Location:  28.88°S, 121.33°E
Report Text: YPKG 230200Z 09010KT 9999 FEW042 23/09 Q1020
Loading
Personal Weather Stations






























Interactive Weather Map New forecast layout! Learn more

10-Day Weather Forecast

Advertisements
Track Severe Weather on mobile